createdAt,value
2018-03-27T00:00:59.117Z,81.00
2018-03-27T00:03:26.580Z,80.80
2018-03-27T00:05:54.044Z,80.70
2018-03-27T00:08:21.603Z,81.40
2018-03-27T00:10:49.092Z,80.70
2018-03-27T00:13:17.320Z,80.00
2018-03-27T00:15:44.969Z,80.00
2018-03-27T00:18:12.430Z,80.00
2018-03-27T00:20:39.896Z,79.90
2018-03-27T00:23:07.348Z,79.90
2018-03-27T00:25:34.838Z,80.20
2018-03-27T00:28:14.149Z,80.50
2018-03-27T00:30:53.550Z,80.60
2018-03-27T00:33:32.954Z,80.30
2018-03-27T00:36:12.280Z,80.30
2018-03-27T00:38:51.708Z,80.10
2018-03-27T00:44:34.855Z,79.40
2018-03-27T00:47:02.357Z,79.80
2018-03-27T00:49:29.936Z,79.70
2018-03-27T00:51:57.396Z,79.60
2018-03-27T00:54:24.999Z,79.40
2018-03-27T00:56:53.233Z,79.30
2018-03-27T00:59:20.738Z,79.20
2018-03-27T01:01:48.207Z,80.50
2018-03-27T01:04:16.470Z,79.70
2018-03-27T01:06:44.733Z,79.70
2018-03-27T01:09:12.198Z,79.60
2018-03-27T01:11:39.667Z,79.90
2018-03-27T01:14:07.955Z,79.70
2018-03-27T01:16:35.396Z,79.70
2018-03-27T01:19:03.666Z,80.00
2018-03-27T01:21:31.138Z,79.90
2018-03-27T01:23:59.393Z,79.90
2018-03-27T01:26:26.918Z,79.80
2018-03-27T01:28:54.441Z,79.80
2018-03-27T01:31:21.919Z,80.20
2018-03-27T01:33:49.429Z,80.80
2018-03-27T01:36:17.058Z,80.70
2018-03-27T01:38:45.244Z,81.20
2018-03-27T01:41:12.717Z,81.10
2018-03-27T01:43:40.190Z,81.60
2018-03-27T01:46:08.423Z,82.20
2018-03-27T01:48:35.890Z,82.10
2018-03-27T01:51:03.356Z,82.30
2018-03-27T01:53:30.821Z,82.30
2018-03-27T01:55:59.105Z,82.60
2018-03-27T01:58:27.367Z,82.70
2018-03-27T02:00:54.927Z,82.70
2018-03-27T02:03:22.405Z,83.30
2018-03-27T02:05:50.638Z,83.50
2018-03-27T02:08:19.386Z,83.40
2018-03-27T02:10:46.357Z,83.50
2018-03-27T02:13:19.438Z,83.90
2018-03-27T02:15:53.162Z,83.90
2018-03-27T02:18:26.247Z,84.50
2018-03-27T02:20:59.456Z,84.70
2018-03-27T02:23:26.945Z,84.60
2018-03-27T02:25:55.298Z,84.50
2018-03-27T02:28:22.798Z,84.50
2018-03-27T02:30:50.313Z,84.90
2018-03-27T02:33:18.559Z,84.70
2018-03-27T02:35:46.051Z,84.80
2018-03-27T02:38:13.523Z,84.80
2018-03-27T02:40:41.752Z,84.80
2018-03-27T02:43:09.224Z,84.70
2018-03-27T02:45:36.699Z,84.60
2018-03-27T02:48:04.250Z,84.80
2018-03-27T02:50:31.723Z,84.90
2018-03-27T02:52:59.967Z,84.80
2018-03-27T02:55:27.437Z,84.70
2018-03-27T02:57:54.902Z,84.50
2018-03-27T03:00:23.269Z,84.90
2018-03-27T03:02:50.742Z,84.40
2018-03-27T03:05:19.007Z,84.30
2018-03-27T03:07:46.479Z,84.30
2018-03-27T03:10:14.742Z,84.60
2018-03-27T03:12:42.210Z,84.60
2018-03-27T03:15:10.469Z,84.00
2018-03-27T03:17:37.920Z,84.00
2018-03-27T03:20:05.403Z,84.00
2018-03-27T03:22:32.867Z,84.20
2018-03-27T03:25:00.365Z,84.00
2018-03-27T03:27:27.820Z,83.90
2018-03-27T03:29:55.300Z,83.60
2018-03-27T03:32:22.961Z,83.20
2018-03-27T03:34:50.491Z,83.10
2018-03-27T03:37:17.958Z,83.00
2018-03-27T03:39:45.459Z,83.10
2018-03-27T03:42:13.700Z,83.30
2018-03-27T03:44:41.168Z,83.20
2018-03-27T03:47:10.182Z,83.70
2018-03-27T03:49:38.435Z,83.40
2018-03-27T03:52:05.917Z,83.30
2018-03-27T03:54:34.190Z,83.00
2018-03-27T03:57:02.452Z,83.00
2018-03-27T03:59:30.060Z,82.90
2018-03-27T04:01:57.619Z,83.50
2018-03-27T04:04:25.109Z,84.10
2018-03-27T04:06:52.589Z,85.20
2018-03-27T04:09:20.053Z,85.90
2018-03-27T04:11:48.330Z,86.80
2018-03-27T04:14:16.559Z,86.80
2018-03-27T04:16:44.018Z,86.70
2018-03-27T04:19:11.481Z,86.90
2018-03-27T04:21:38.950Z,86.90
2018-03-27T04:24:06.420Z,87.50
2018-03-27T04:26:35.414Z,89.50
2018-03-27T04:29:02.885Z,89.50
2018-03-27T04:31:31.142Z,90.00
2018-03-27T04:33:58.632Z,89.90
2018-03-27T04:36:26.079Z,89.90
2018-03-27T04:38:54.329Z,89.80
2018-03-27T04:41:21.802Z,89.80
2018-03-27T04:43:50.061Z,90.20
2018-03-27T04:46:17.612Z,90.20
2018-03-27T04:48:45.078Z,90.30
2018-03-27T04:51:12.635Z,90.30
2018-03-27T04:53:40.112Z,90.50
2018-03-27T04:56:07.588Z,90.80
2018-03-27T04:58:35.168Z,91.00
2018-03-27T05:01:02.643Z,90.80
2018-03-27T05:03:30.146Z,90.80
2018-03-27T05:05:58.409Z,90.80
2018-03-27T05:08:25.870Z,90.80
2018-03-27T05:10:53.347Z,90.70
2018-03-27T05:13:20.874Z,90.70
2018-03-27T05:15:48.374Z,90.60
2018-03-27T05:18:15.855Z,90.80
2018-03-27T05:20:43.344Z,90.50
2018-03-27T05:23:10.873Z,90.60
2018-03-27T05:25:38.346Z,90.50
2018-03-27T05:28:05.823Z,90.30
2018-03-27T05:30:33.289Z,90.40
2018-03-27T05:33:01.536Z,90.10
2018-03-27T05:35:29.012Z,90.10
2018-03-27T05:37:56.477Z,90.30
2018-03-27T05:40:24.790Z,90.40
2018-03-27T05:42:52.277Z,90.40
2018-03-27T05:45:19.756Z,90.50
2018-03-27T05:47:47.242Z,90.30
2018-03-27T05:50:14.701Z,90.30
2018-03-27T05:52:42.175Z,90.20
2018-03-27T05:55:09.656Z,90.20
2018-03-27T05:57:37.260Z,90.10
2018-03-27T06:00:04.753Z,90.20
2018-03-27T06:02:32.234Z,90.10
2018-03-27T06:04:59.868Z,90.30
2018-03-27T06:07:27.352Z,90.10
2018-03-27T06:09:54.830Z,90.00
2018-03-27T06:12:22.306Z,89.80
2018-03-27T06:14:50.561Z,89.70
2018-03-27T06:17:18.070Z,89.60
2018-03-27T06:19:45.554Z,89.50
2018-03-27T06:22:13.133Z,89.50
2018-03-27T06:24:42.118Z,89.60
2018-03-27T06:27:09.675Z,89.60
2018-03-27T06:29:37.232Z,89.40
2018-03-27T06:32:04.702Z,89.50
2018-03-27T06:34:32.259Z,89.50
2018-03-27T06:36:59.768Z,89.30
2018-03-27T06:39:27.240Z,89.40
2018-03-27T06:41:54.703Z,89.20
2018-03-27T06:44:22.186Z,88.90
2018-03-27T06:46:49.672Z,88.70
2018-03-27T06:49:17.908Z,88.90
2018-03-27T06:51:45.395Z,88.90
2018-03-27T06:54:13.626Z,88.60
2018-03-27T06:56:41.092Z,88.40
2018-03-27T06:59:08.601Z,88.30
2018-03-27T07:01:36.791Z,87.30
2018-03-27T07:04:04.303Z,87.40
2018-03-27T07:06:31.860Z,87.70
2018-03-27T07:09:01.818Z,87.70
2018-03-27T07:11:30.044Z,86.70
2018-03-27T07:13:57.601Z,86.50
2018-03-27T07:16:25.098Z,86.10
2018-03-27T07:18:52.623Z,84.20
2018-03-27T07:21:20.214Z,83.80
2018-03-27T07:23:48.433Z,82.90
2018-03-27T07:26:15.888Z,82.90
2018-03-27T07:28:43.362Z,83.10
2018-03-27T07:31:10.834Z,81.30
2018-03-27T07:33:38.301Z,81.10
2018-03-27T07:36:06.516Z,80.00
2018-03-27T07:38:34.034Z,79.80
2018-03-27T07:41:02.303Z,78.50
2018-03-27T07:43:30.543Z,76.50
2018-03-27T07:45:58.072Z,76.50
2018-03-27T07:48:25.585Z,76.40
2018-03-27T07:50:53.154Z,77.70
2018-03-27T07:53:21.420Z,78.60
2018-03-27T07:55:48.901Z,78.50
2018-03-27T07:58:16.476Z,78.40
2018-03-27T08:00:44.678Z,76.90
2018-03-27T08:03:12.136Z,76.80
2018-03-27T08:05:39.612Z,75.10
2018-03-27T08:08:07.088Z,76.10
2018-03-27T08:10:35.329Z,76.70
2018-03-27T08:13:02.800Z,77.40
2018-03-27T08:15:30.283Z,76.10
2018-03-27T08:17:58.508Z,76.20
2018-03-27T08:20:25.998Z,76.10
2018-03-27T08:22:54.984Z,74.50
2018-03-27T08:25:22.459Z,74.50
2018-03-27T08:27:50.733Z,72.90
2018-03-27T08:30:18.961Z,73.20
2018-03-27T08:32:46.430Z,73.20
2018-03-27T08:35:14.006Z,70.90
2018-03-27T08:37:42.238Z,67.40
2018-03-27T08:40:09.741Z,67.30
2018-03-27T08:42:37.251Z,65.30
2018-03-27T08:45:05.254Z,67.70
2018-03-27T08:47:32.825Z,68.40
2018-03-27T08:50:00.287Z,67.70
2018-03-27T08:52:27.778Z,69.60
2018-03-27T08:54:55.246Z,70.40
2018-03-27T08:57:22.732Z,69.30
2018-03-27T08:59:50.213Z,66.50
2018-03-27T09:02:17.775Z,67.00
2018-03-27T09:04:45.248Z,62.00
2018-03-27T09:07:13.506Z,60.60
2018-03-27T09:09:40.968Z,60.60
2018-03-27T09:12:09.202Z,58.70
2018-03-27T09:14:36.688Z,58.70
2018-03-27T09:17:04.260Z,60.10
2018-03-27T09:19:32.514Z,57.40
2018-03-27T09:21:59.990Z,57.30
2018-03-27T09:24:28.224Z,58.60
2018-03-27T09:26:55.726Z,58.60
2018-03-27T09:29:24.106Z,56.80
2018-03-27T09:31:52.425Z,56.70
2018-03-27T09:34:19.938Z,56.50
2018-03-27T09:36:47.425Z,52.40
2018-03-27T09:39:14.899Z,50.50
2018-03-27T09:41:42.525Z,52.60
2018-03-27T09:44:10.837Z,46.10
2018-03-27T09:46:38.317Z,46.10
2018-03-27T09:49:05.789Z,50.00
2018-03-27T09:51:33.274Z,51.80
2018-03-27T09:54:01.534Z,53.40
2018-03-27T09:56:29.776Z,54.80
2018-03-27T09:58:57.254Z,54.70
2018-03-27T10:01:27.671Z,55.60
2018-03-27T10:03:55.155Z,54.50
2018-03-27T10:06:23.409Z,50.30
2018-03-27T10:08:50.922Z,50.20
2018-03-27T10:11:19.146Z,50.40
2018-03-27T10:13:46.626Z,50.30
2018-03-27T10:16:14.108Z,51.10
2018-03-27T10:18:41.598Z,52.00
2018-03-27T10:21:09.077Z,51.50
2018-03-27T10:23:36.746Z,52.20
2018-03-27T10:26:04.209Z,52.40
2018-03-27T10:28:32.445Z,54.30
2018-03-27T10:30:59.922Z,54.20
2018-03-27T10:33:27.486Z,54.30
2018-03-27T10:35:54.953Z,54.50
2018-03-27T10:38:22.414Z,54.70
2018-03-27T10:40:50.652Z,53.80
2018-03-27T10:43:18.118Z,53.70
2018-03-27T10:45:45.653Z,53.20
2018-03-27T10:48:13.357Z,52.60
2018-03-27T10:50:40.816Z,52.10
2018-03-27T10:53:09.080Z,50.40
2018-03-27T10:55:36.567Z,50.40
2018-03-27T10:58:04.353Z,50.10
2018-03-27T11:00:31.861Z,50.60
2018-03-27T11:02:59.330Z,50.60
2018-03-27T11:05:27.586Z,49.10
2018-03-27T11:07:55.053Z,49.00
2018-03-27T11:10:23.292Z,47.70
2018-03-27T11:12:50.785Z,47.60
2018-03-27T11:15:18.253Z,47.90
2018-03-27T11:17:46.516Z,44.70
2018-03-27T11:20:14.038Z,44.40
2018-03-27T11:22:41.535Z,41.20
2018-03-27T11:25:08.997Z,41.70
2018-03-27T11:27:37.254Z,40.80
2018-03-27T11:30:04.720Z,40.60
2018-03-27T11:32:32.193Z,42.30
2018-03-27T11:34:59.648Z,43.90
2018-03-27T11:37:27.880Z,46.20
2018-03-27T11:39:55.373Z,46.20
2018-03-27T11:42:22.846Z,46.90
2018-03-27T11:44:51.192Z,47.20
2018-03-27T11:47:18.654Z,47.20
2018-03-27T11:49:46.135Z,47.20
2018-03-27T11:52:14.381Z,47.70
2018-03-27T11:54:41.894Z,48.50
2018-03-27T11:57:09.352Z,48.40
2018-03-27T11:59:36.856Z,48.10
2018-03-27T12:02:04.317Z,48.20
2018-03-27T12:04:32.558Z,48.00
2018-03-27T12:07:00.025Z,48.00
2018-03-27T12:09:27.508Z,48.80
2018-03-27T12:11:54.974Z,49.60
2018-03-27T12:14:23.234Z,49.10
2018-03-27T12:16:50.793Z,49.00
2018-03-27T12:19:18.249Z,49.30
2018-03-27T12:21:45.715Z,49.00
2018-03-27T12:24:13.167Z,49.30
2018-03-27T12:26:40.632Z,49.70
2018-03-27T12:29:08.094Z,49.80
2018-03-27T12:31:36.338Z,49.80
2018-03-27T12:34:03.897Z,49.80
2018-03-27T12:36:31.369Z,50.40
2018-03-27T12:38:58.920Z,50.40
2018-03-27T12:41:26.485Z,50.80
2018-03-27T12:43:53.947Z,50.30
2018-03-27T12:46:22.176Z,50.80
2018-03-27T12:48:49.651Z,50.70
2018-03-27T12:51:17.125Z,51.30
2018-03-27T12:53:44.638Z,51.10
2018-03-27T12:56:12.141Z,51.10
2018-03-27T12:58:39.596Z,51.10
2018-03-27T13:01:07.069Z,51.30
2018-03-27T13:03:34.621Z,51.20
2018-03-27T13:06:02.174Z,51.70
2018-03-27T13:08:30.440Z,51.20
2018-03-27T13:10:59.429Z,50.40
2018-03-27T13:13:26.897Z,50.30
2018-03-27T13:15:54.448Z,50.50
2018-03-27T13:18:21.913Z,50.40
2018-03-27T13:20:49.380Z,50.50
2018-03-27T13:23:16.837Z,50.10
2018-03-27T13:25:44.393Z,49.00
2018-03-27T13:28:11.860Z,48.90
2018-03-27T13:30:40.104Z,48.60
2018-03-27T13:33:07.568Z,48.50
2018-03-27T13:35:35.044Z,48.60
2018-03-27T13:38:02.593Z,47.60
2018-03-27T13:40:30.153Z,48.80
2018-03-27T13:42:57.621Z,48.30
2018-03-27T13:45:25.849Z,46.90
2018-03-27T13:47:53.338Z,46.90
2018-03-27T13:50:20.819Z,47.70
2018-03-27T13:52:49.054Z,47.20
2018-03-27T13:55:16.581Z,47.10
2018-03-27T13:57:44.050Z,48.10
2018-03-27T14:00:11.533Z,47.10
2018-03-27T14:02:39.015Z,45.80
2018-03-27T14:05:07.284Z,45.20
2018-03-27T14:07:35.530Z,44.60
2018-03-27T14:10:03.009Z,44.60
2018-03-27T14:12:31.262Z,44.50
2018-03-27T14:14:58.755Z,44.40
2018-03-27T14:17:27.014Z,43.90
2018-03-27T14:19:54.475Z,43.90
2018-03-27T14:22:22.737Z,42.40
2018-03-27T14:24:50.309Z,42.40
2018-03-27T14:27:17.876Z,42.40
2018-03-27T14:29:46.113Z,41.70
2018-03-27T14:32:13.684Z,41.70
2018-03-27T14:34:41.178Z,42.80
2018-03-27T14:37:08.767Z,43.20
2018-03-27T14:39:36.237Z,41.40
2018-03-27T14:42:03.717Z,42.50
2018-03-27T14:44:31.316Z,41.20
2018-03-27T14:46:59.567Z,42.30
2018-03-27T14:49:27.892Z,41.80
2018-03-27T14:51:55.378Z,41.70
2018-03-27T14:54:22.943Z,41.90
2018-03-27T14:56:50.521Z,40.90
2018-03-27T14:59:17.990Z,40.40
2018-03-27T15:01:46.221Z,40.30
2018-03-27T15:04:13.690Z,40.20
2018-03-27T15:06:41.260Z,39.50
2018-03-27T15:09:08.878Z,38.30
2018-03-27T15:11:36.337Z,40.10
2018-03-27T15:14:04.021Z,39.00
2018-03-27T15:16:31.496Z,39.90
2018-03-27T15:18:58.956Z,39.40
2018-03-27T15:21:26.505Z,38.60
2018-03-27T15:23:53.974Z,37.70
2018-03-27T15:26:22.249Z,38.20
2018-03-27T15:28:49.803Z,37.40
2018-03-27T15:31:17.269Z,36.80
2018-03-27T15:33:44.841Z,35.40
2018-03-27T15:36:12.315Z,35.40
2018-03-27T15:38:39.778Z,35.30
2018-03-27T15:41:07.288Z,36.10
2018-03-27T15:43:34.852Z,34.80
2018-03-27T15:46:02.315Z,33.90
2018-03-27T15:48:29.865Z,32.80
2018-03-27T15:50:57.338Z,32.30
2018-03-27T15:53:25.610Z,31.10
2018-03-27T15:55:53.070Z,31.10
2018-03-27T15:58:21.324Z,33.40
2018-03-27T16:00:48.902Z,33.30
2018-03-27T16:03:17.133Z,30.70
2018-03-27T16:05:44.601Z,31.30
2018-03-27T16:08:12.071Z,30.90
2018-03-27T16:10:39.542Z,32.40
2018-03-27T16:13:07.044Z,33.20
2018-03-27T16:15:34.549Z,33.00
2018-03-27T16:18:02.111Z,31.50
2018-03-27T16:20:29.577Z,30.00
2018-03-27T16:22:57.070Z,30.80
2018-03-27T16:25:24.537Z,32.00
2018-03-27T16:27:52.008Z,32.70
2018-03-27T16:30:19.474Z,32.10
2018-03-27T16:32:47.058Z,32.10
2018-03-27T16:35:14.511Z,33.90
2018-03-27T16:37:42.120Z,34.30
2018-03-27T16:40:09.728Z,34.50
2018-03-27T16:42:37.994Z,35.60
2018-03-27T16:45:05.444Z,35.50
2018-03-27T16:47:32.919Z,36.00
2018-03-27T16:50:00.476Z,36.30
2018-03-27T16:52:27.966Z,37.30
2018-03-27T16:54:55.436Z,38.20
2018-03-27T16:57:22.928Z,38.80
2018-03-27T16:59:50.401Z,38.90
2018-03-27T17:02:18.287Z,39.10
2018-03-27T17:04:46.590Z,39.60
2018-03-27T17:07:14.109Z,39.40
2018-03-27T17:09:57.500Z,39.80
2018-03-27T17:12:24.998Z,40.50
2018-03-27T17:15:07.340Z,42.00
2018-03-27T17:17:34.800Z,42.30
2018-03-27T17:20:02.284Z,43.30
2018-03-27T17:22:29.753Z,44.00
2018-03-27T17:24:57.221Z,44.50
2018-03-27T17:27:24.790Z,45.00
2018-03-27T17:29:53.037Z,45.60
2018-03-27T17:32:20.528Z,45.50
2018-03-27T17:34:48.807Z,46.10
2018-03-27T17:37:17.238Z,46.40
2018-03-27T17:39:44.717Z,46.30
2018-03-27T17:42:12.238Z,46.50
2018-03-27T17:44:39.775Z,46.80
2018-03-27T17:47:07.998Z,47.30
2018-03-27T17:49:35.523Z,47.30
2018-03-27T17:52:03.024Z,47.20
2018-03-27T17:54:30.521Z,47.40
2018-03-27T17:56:58.749Z,48.10
2018-03-27T17:59:26.221Z,48.00
2018-03-27T18:01:53.697Z,48.30
2018-03-27T18:04:21.954Z,48.80
2018-03-27T18:06:49.529Z,48.70
2018-03-27T18:09:17.760Z,49.10
2018-03-27T18:11:45.233Z,49.10
2018-03-27T18:14:12.806Z,49.10
2018-03-27T18:16:40.276Z,49.30
2018-03-27T18:19:07.821Z,49.30
2018-03-27T18:21:35.273Z,49.30
2018-03-27T18:24:02.834Z,49.40
2018-03-27T18:26:30.301Z,49.30
2018-03-27T18:28:57.780Z,49.70
2018-03-27T18:31:26.001Z,50.00
2018-03-27T18:33:53.492Z,50.00
2018-03-27T18:36:21.727Z,50.80
2018-03-27T18:38:49.192Z,50.30
2018-03-27T18:41:16.683Z,50.50
2018-03-27T18:43:44.947Z,50.80
2018-03-27T18:46:12.392Z,50.70
2018-03-27T18:48:39.858Z,50.70
2018-03-27T18:51:07.321Z,51.00
2018-03-27T18:53:34.791Z,51.00
2018-03-27T18:56:03.035Z,51.20
2018-03-27T18:58:30.496Z,51.00
2018-03-27T19:00:57.963Z,51.30
2018-03-27T19:03:25.512Z,51.60
2018-03-27T19:05:53.086Z,51.50
2018-03-27T19:08:20.571Z,51.50
2018-03-27T19:10:48.036Z,52.00
2018-03-27T19:13:15.502Z,52.10
2018-03-27T19:15:43.009Z,52.30
2018-03-27T19:18:10.482Z,52.40
2018-03-27T19:20:38.716Z,52.30
2018-03-27T19:23:06.253Z,52.20
2018-03-27T19:25:33.642Z,52.70
2018-03-27T19:28:01.107Z,52.80
2018-03-27T19:30:28.720Z,53.00
2018-03-27T19:32:56.292Z,53.10
2018-03-27T19:35:23.789Z,53.00
2018-03-27T19:37:51.250Z,52.90
2018-03-27T19:40:18.844Z,52.90
2018-03-27T19:42:46.366Z,53.10
2018-03-27T19:45:13.926Z,53.00
2018-03-27T19:47:41.390Z,53.50
2018-03-27T19:50:09.650Z,53.50
2018-03-27T19:52:37.211Z,53.50
2018-03-27T19:55:04.682Z,53.70
2018-03-27T19:57:32.922Z,53.70
2018-03-27T20:00:00.384Z,53.70
2018-03-27T20:02:27.854Z,54.00
2018-03-27T20:04:55.409Z,54.10
2018-03-27T20:07:23.072Z,54.20
2018-03-27T20:09:50.559Z,54.50
2018-03-27T20:12:18.109Z,54.60
2018-03-27T20:14:46.346Z,54.50
2018-03-27T20:17:13.805Z,54.40
2018-03-27T20:19:41.331Z,54.80
2018-03-27T20:22:08.801Z,55.00
2018-03-27T20:24:36.271Z,55.40
2018-03-27T20:27:03.746Z,55.40
2018-03-27T20:29:31.298Z,55.10
2018-03-27T20:31:58.869Z,55.20
2018-03-27T20:34:26.417Z,55.50
2018-03-27T20:36:53.879Z,55.20
2018-03-27T20:39:21.340Z,55.10
2018-03-27T20:41:49.626Z,55.50
2018-03-27T20:44:17.858Z,55.50
2018-03-27T20:46:45.351Z,55.40
2018-03-27T20:49:12.895Z,55.50
2018-03-27T20:51:40.352Z,55.60
2018-03-27T20:54:07.935Z,55.50
2018-03-27T20:56:36.169Z,56.10
2018-03-27T20:59:03.636Z,55.80
2018-03-27T21:01:31.097Z,56.00
2018-03-27T21:03:58.566Z,56.00
2018-03-27T21:06:26.019Z,56.20
2018-03-27T21:08:53.477Z,56.20
2018-03-27T21:11:21.721Z,56.50
2018-03-27T21:13:49.185Z,57.00
2018-03-27T21:16:16.663Z,56.40
2018-03-27T21:18:44.125Z,56.90
2018-03-27T21:21:11.723Z,56.80
2018-03-27T21:23:39.934Z,57.20
2018-03-27T21:26:07.394Z,57.20
2018-03-27T21:28:34.849Z,57.20
2018-03-27T21:31:02.317Z,57.10
2018-03-27T21:33:29.777Z,57.30
2018-03-27T21:35:57.250Z,57.40
2018-03-27T21:38:25.522Z,57.90
2018-03-27T21:40:52.981Z,57.70
2018-03-27T21:43:21.215Z,58.70
2018-03-27T21:45:48.804Z,58.00
2018-03-27T21:48:16.275Z,58.30
2018-03-27T21:50:43.790Z,58.70
2018-03-27T21:53:11.250Z,58.60
2018-03-27T21:55:38.730Z,58.80
2018-03-27T21:58:06.261Z,59.20
2018-03-27T22:00:34.465Z,59.40
2018-03-27T22:03:01.924Z,59.30
2018-03-27T22:05:29.472Z,59.10
2018-03-27T22:07:56.934Z,59.50
2018-03-27T22:10:24.400Z,59.10
2018-03-27T22:12:51.948Z,59.60
2018-03-27T22:15:19.422Z,60.40
2018-03-27T22:17:46.885Z,60.20
2018-03-27T22:20:15.132Z,60.60
2018-03-27T22:22:42.653Z,60.60
2018-03-27T22:25:10.153Z,61.20
2018-03-27T22:27:37.707Z,61.00
2018-03-27T22:30:05.179Z,61.00
2018-03-27T22:32:32.665Z,61.00
2018-03-27T22:35:00.271Z,60.70
2018-03-27T22:37:27.738Z,61.00
2018-03-27T22:39:55.306Z,60.90
2018-03-27T22:42:22.773Z,60.90
2018-03-27T22:44:51.046Z,60.80
2018-03-27T22:47:18.497Z,61.00
2018-03-27T22:49:46.015Z,61.10
2018-03-27T22:52:14.226Z,61.80
2018-03-27T22:54:41.676Z,61.70
2018-03-27T22:57:09.242Z,61.60
2018-03-27T22:59:36.707Z,62.40
2018-03-27T23:02:04.165Z,62.00
2018-03-27T23:04:31.724Z,62.80
2018-03-27T23:06:59.264Z,62.10
2018-03-27T23:09:26.741Z,62.90
2018-03-27T23:11:54.990Z,62.70
2018-03-27T23:14:22.463Z,62.60
2018-03-27T23:16:50.022Z,62.70
2018-03-27T23:19:17.581Z,63.30
2018-03-27T23:21:45.136Z,63.30
2018-03-27T23:24:12.702Z,63.00
2018-03-27T23:26:40.261Z,63.50
2018-03-27T23:29:07.805Z,63.80
2018-03-27T23:31:35.298Z,63.70
2018-03-27T23:34:02.754Z,64.20
2018-03-27T23:36:30.985Z,64.30
2018-03-27T23:38:58.452Z,64.20
2018-03-27T23:41:25.906Z,64.30
2018-03-27T23:43:53.372Z,64.00
2018-03-27T23:46:20.934Z,65.60
2018-03-27T23:48:48.402Z,65.50
2018-03-27T23:51:15.894Z,65.60
2018-03-27T23:53:43.423Z,64.80
2018-03-27T23:56:11.678Z,65.30
2018-03-27T23:58:39.143Z,65.20
